sensor_id;sensor_type;location;lat;lon;timestamp;temperature;humidity
66013;DHT22;52783;50.502;8.190;2023-04-25T00:02:10;8.30;99.90
66013;DHT22;52783;50.502;8.190;2023-04-25T00:04:35;8.30;99.90
66013;DHT22;52783;50.502;8.190;2023-04-25T00:07:03;8.30;99.90
66013;DHT22;52783;50.502;8.190;2023-04-25T00:09:29;8.20;99.90
66013;DHT22;52783;50.502;8.190;2023-04-25T00:11:55;8.20;99.90
66013;DHT22;52783;50.502;8.190;2023-04-25T00:14:20;8.20;99.90
66013;DHT22;52783;50.502;8.190;2023-04-25T00:16:46;8.10;99.90
66013;DHT22;52783;50.502;8.190;2023-04-25T00:19:11;8.20;99.90
66013;DHT22;52783;50.502;8.190;2023-04-25T00:21:38;8.10;99.90
66013;DHT22;52783;50.502;8.190;2023-04-25T00:24:06;8.10;99.90
66013;DHT22;52783;50.502;8.190;2023-04-25T00:26:33;8.10;99.90
66013;DHT22;52783;50.502;8.190;2023-04-25T00:28:58;8.10;99.90
66013;DHT22;52783;50.502;8.190;2023-04-25T00:31:24;7.90;99.90
66013;DHT22;52783;50.502;8.190;2023-04-25T00:33:50;7.90;99.90
66013;DHT22;52783;50.502;8.190;2023-04-25T00:36:15;7.90;99.90
66013;DHT22;52783;50.502;8.190;2023-04-25T00:38:42;7.80;99.90
66013;DHT22;52783;50.502;8.190;2023-04-25T00:41:08;7.80;99.90
66013;DHT22;52783;50.502;8.190;2023-04-25T00:43:34;7.70;99.90
66013;DHT22;52783;50.502;8.190;2023-04-25T00:46:01;7.70;99.90
66013;DHT22;52783;50.502;8.190;2023-04-25T00:48:26;7.60;99.90
66013;DHT22;52783;50.502;8.190;2023-04-25T00:50:54;7.60;99.90
66013;DHT22;52783;50.502;8.190;2023-04-25T00:53:21;7.50;99.90
66013;DHT22;52783;50.502;8.190;2023-04-25T00:55:47;7.50;99.90
66013;DHT22;52783;50.502;8.190;2023-04-25T00:58:16;7.50;99.90
66013;DHT22;52783;50.502;8.190;2023-04-25T01:00:42;7.40;99.90
66013;DHT22;52783;50.502;8.190;2023-04-25T01:03:09;7.40;99.90
66013;DHT22;52783;50.502;8.190;2023-04-25T01:05:35;7.40;99.90
66013;DHT22;52783;50.502;8.190;2023-04-25T01:08:01;7.40;99.90
66013;DHT22;52783;50.502;8.190;2023-04-25T01:10:27;7.30;99.90
66013;DHT22;52783;50.502;8.190;2023-04-25T01:12:52;7.30;99.90
66013;DHT22;52783;50.502;8.190;2023-04-25T01:15:18;7.30;99.90
66013;DHT22;52783;50.502;8.190;2023-04-25T01:17:44;7.30;99.90
66013;DHT22;52783;50.502;8.190;2023-04-25T01:20:11;7.30;99.90
66013;DHT22;52783;50.502;8.190;2023-04-25T01:22:37;7.30;99.90
66013;DHT22;52783;50.502;8.190;2023-04-25T01:25:03;7.20;99.90
66013;DHT22;52783;50.502;8.190;2023-04-25T01:27:29;7.10;99.90
66013;DHT22;52783;50.502;8.190;2023-04-25T01:29:56;7.10;99.90
66013;DHT22;52783;50.502;8.190;2023-04-25T01:32:22;7.10;99.90
66013;DHT22;52783;50.502;8.190;2023-04-25T01:34:49;7.00;99.90
66013;DHT22;52783;50.502;8.190;2023-04-25T01:37:15;6.90;99.90
66013;DHT22;52783;50.502;8.190;2023-04-25T01:39:41;7.00;99.90
66013;DHT22;52783;50.502;8.190;2023-04-25T01:42:07;6.90;99.90
66013;DHT22;52783;50.502;8.190;2023-04-25T01:44:32;6.90;99.90
66013;DHT22;52783;50.502;8.190;2023-04-25T01:46:58;6.90;99.90
66013;DHT22;52783;50.502;8.190;2023-04-25T01:49:24;6.90;99.90
66013;DHT22;52783;50.502;8.190;2023-04-25T01:51:49;6.90;99.90
66013;DHT22;52783;50.502;8.190;2023-04-25T01:54:15;6.80;99.90
66013;DHT22;52783;50.502;8.190;2023-04-25T01:56:40;6.80;99.90
66013;DHT22;52783;50.502;8.190;2023-04-25T01:59:06;6.80;99.90
66013;DHT22;52783;50.502;8.190;2023-04-25T02:01:32;6.70;99.90
66013;DHT22;52783;50.502;8.190;2023-04-25T02:03:58;6.70;99.90
66013;DHT22;52783;50.502;8.190;2023-04-25T02:06:23;6.70;99.90
66013;DHT22;52783;50.502;8.190;2023-04-25T02:08:49;6.60;99.90
66013;DHT22;52783;50.502;8.190;2023-04-25T02:11:15;6.60;99.90
66013;DHT22;52783;50.502;8.190;2023-04-25T02:13:41;6.50;99.90
66013;DHT22;52783;50.502;8.190;2023-04-25T02:16:06;6.50;99.90
66013;DHT22;52783;50.502;8.190;2023-04-25T02:18:32;6.40;99.90
66013;DHT22;52783;50.502;8.190;2023-04-25T02:20:59;6.40;99.90
66013;DHT22;52783;50.502;8.190;2023-04-25T02:23:26;6.40;99.90
66013;DHT22;52783;50.502;8.190;2023-04-25T02:25:52;6.40;99.90
66013;DHT22;52783;50.502;8.190;2023-04-25T02:28:18;6.30;99.90
66013;DHT22;52783;50.502;8.190;2023-04-25T02:30:43;6.30;99.90
66013;DHT22;52783;50.502;8.190;2023-04-25T02:33:09;6.10;99.90
66013;DHT22;52783;50.502;8.190;2023-04-25T02:35:34;6.10;99.90
66013;DHT22;52783;50.502;8.190;2023-04-25T02:38:00;6.00;99.90
66013;DHT22;52783;50.502;8.190;2023-04-25T02:40:26;5.90;99.90
66013;DHT22;52783;50.502;8.190;2023-04-25T02:42:52;5.90;99.90
66013;DHT22;52783;50.502;8.190;2023-04-25T02:45:17;5.90;99.90
66013;DHT22;52783;50.502;8.190;2023-04-25T02:47:43;5.90;99.90
66013;DHT22;52783;50.502;8.190;2023-04-25T02:50:08;5.90;99.90
66013;DHT22;52783;50.502;8.190;2023-04-25T02:52:34;5.80;99.90
66013;DHT22;52783;50.502;8.190;2023-04-25T02:55:00;5.70;99.90
66013;DHT22;52783;50.502;8.190;2023-04-25T02:57:26;5.70;99.90
66013;DHT22;52783;50.502;8.190;2023-04-25T02:59:51;5.70;99.90
66013;DHT22;52783;50.502;8.190;2023-04-25T03:02:17;5.60;99.90
66013;DHT22;52783;50.502;8.190;2023-04-25T03:04:42;5.70;99.90
66013;DHT22;52783;50.502;8.190;2023-04-25T03:07:08;5.50;99.90
66013;DHT22;52783;50.502;8.190;2023-04-25T03:09:33;5.50;99.90
66013;DHT22;52783;50.502;8.190;2023-04-25T03:12:00;5.40;99.90
66013;DHT22;52783;50.502;8.190;2023-04-25T03:14:26;5.40;99.90
66013;DHT22;52783;50.502;8.190;2023-04-25T03:16:52;5.20;99.90
66013;DHT22;52783;50.502;8.190;2023-04-25T03:19:17;5.20;99.90
66013;DHT22;52783;50.502;8.190;2023-04-25T03:21:44;5.20;99.90
66013;DHT22;52783;50.502;8.190;2023-04-25T03:27:08;5.20;99.90
66013;DHT22;52783;50.502;8.190;2023-04-25T03:29:34;5.30;99.90
66013;DHT22;52783;50.502;8.190;2023-04-25T03:31:59;5.20;99.90
66013;DHT22;52783;50.502;8.190;2023-04-25T03:34:25;5.30;99.90
66013;DHT22;52783;50.502;8.190;2023-04-25T03:36:51;5.30;99.90
66013;DHT22;52783;50.502;8.190;2023-04-25T03:39:16;5.30;99.90
66013;DHT22;52783;50.502;8.190;2023-04-25T03:41:42;5.40;99.90
66013;DHT22;52783;50.502;8.190;2023-04-25T03:44:08;5.40;99.90
66013;DHT22;52783;50.502;8.190;2023-04-25T03:46:33;5.40;99.90
66013;DHT22;52783;50.502;8.190;2023-04-25T03:48:59;5.40;99.90
66013;DHT22;52783;50.502;8.190;2023-04-25T03:51:25;5.30;99.90
66013;DHT22;52783;50.502;8.190;2023-04-25T03:53:51;5.30;99.90
66013;DHT22;52783;50.502;8.190;2023-04-25T03:56:17;5.30;99.90
66013;DHT22;52783;50.502;8.190;2023-04-25T03:58:42;5.30;99.90
66013;DHT22;52783;50.502;8.190;2023-04-25T04:01:08;5.30;99.90
66013;DHT22;52783;50.502;8.190;2023-04-25T04:03:34;5.30;99.90
66013;DHT22;52783;50.502;8.190;2023-04-25T04:06:04;5.30;99.90
66013;DHT22;52783;50.502;8.190;2023-04-25T04:08:31;5.30;99.90
66013;DHT22;52783;50.502;8.190;2023-04-25T04:10:58;5.30;99.90
66013;DHT22;52783;50.502;8.190;2023-04-25T04:13:27;5.30;99.90
66013;DHT22;52783;50.502;8.190;2023-04-25T04:15:53;5.30;99.90
66013;DHT22;52783;50.502;8.190;2023-04-25T04:18:19;5.30;99.90
66013;DHT22;52783;50.502;8.190;2023-04-25T04:20:44;5.30;99.90
66013;DHT22;52783;50.502;8.190;2023-04-25T04:23:10;5.30;99.90
66013;DHT22;52783;50.502;8.190;2023-04-25T04:25:36;5.20;99.90
66013;DHT22;52783;50.502;8.190;2023-04-25T04:28:02;5.20;99.90
66013;DHT22;52783;50.502;8.190;2023-04-25T04:30:28;5.30;99.90
66013;DHT22;52783;50.502;8.190;2023-04-25T04:32:55;5.20;99.90
66013;DHT22;52783;50.502;8.190;2023-04-25T04:35:24;5.20;99.90
66013;DHT22;52783;50.502;8.190;2023-04-25T04:37:50;5.20;99.90
66013;DHT22;52783;50.502;8.190;2023-04-25T04:40:17;5.30;99.90
66013;DHT22;52783;50.502;8.190;2023-04-25T04:42:43;5.20;99.90
66013;DHT22;52783;50.502;8.190;2023-04-25T04:45:11;5.30;99.90
66013;DHT22;52783;50.502;8.190;2023-04-25T04:47:37;5.30;99.90
66013;DHT22;52783;50.502;8.190;2023-04-25T04:50:07;5.40;99.90
66013;DHT22;52783;50.502;8.190;2023-04-25T04:52:36;5.50;99.90
66013;DHT22;52783;50.502;8.190;2023-04-25T04:55:03;5.70;99.90
66013;DHT22;52783;50.502;8.190;2023-04-25T04:57:29;5.80;99.90
66013;DHT22;52783;50.502;8.190;2023-04-25T04:59:56;6.10;99.90
66013;DHT22;52783;50.502;8.190;2023-04-25T05:02:22;6.20;99.90
66013;DHT22;52783;50.502;8.190;2023-04-25T05:04:48;6.40;99.90
66013;DHT22;52783;50.502;8.190;2023-04-25T05:07:13;6.50;99.90
66013;DHT22;52783;50.502;8.190;2023-04-25T05:09:39;6.80;99.90
66013;DHT22;52783;50.502;8.190;2023-04-25T05:12:05;7.00;99.90
66013;DHT22;52783;50.502;8.190;2023-04-25T05:14:31;7.50;99.90
66013;DHT22;52783;50.502;8.190;2023-04-25T05:16:56;7.80;99.90
66013;DHT22;52783;50.502;8.190;2023-04-25T05:19:22;8.40;99.90
66013;DHT22;52783;50.502;8.190;2023-04-25T05:21:48;8.80;99.90
66013;DHT22;52783;50.502;8.190;2023-04-25T05:24:14;8.90;99.90
66013;DHT22;52783;50.502;8.190;2023-04-25T05:26:40;8.90;99.90
66013;DHT22;52783;50.502;8.190;2023-04-25T05:29:05;9.20;99.90
66013;DHT22;52783;50.502;8.190;2023-04-25T05:31:31;9.00;99.90
66013;DHT22;52783;50.502;8.190;2023-04-25T05:33:57;9.20;99.90
66013;DHT22;52783;50.502;8.190;2023-04-25T05:36:23;9.10;99.90
66013;DHT22;52783;50.502;8.190;2023-04-25T05:38:48;8.80;99.90
66013;DHT22;52783;50.502;8.190;2023-04-25T05:41:14;8.60;99.90
66013;DHT22;52783;50.502;8.190;2023-04-25T05:43:40;8.50;99.90
66013;DHT22;52783;50.502;8.190;2023-04-25T05:46:10;8.10;99.90
66013;DHT22;52783;50.502;8.190;2023-04-25T05:48:36;7.80;99.90
66013;DHT22;52783;50.502;8.190;2023-04-25T05:51:02;7.50;99.90
66013;DHT22;52783;50.502;8.190;2023-04-25T05:53:28;7.90;99.90
66013;DHT22;52783;50.502;8.190;2023-04-25T05:55:53;7.50;99.90
66013;DHT22;52783;50.502;8.190;2023-04-25T05:58:19;7.20;99.90
66013;DHT22;52783;50.502;8.190;2023-04-25T06:00:44;7.10;99.90
66013;DHT22;52783;50.502;8.190;2023-04-25T06:03:11;7.10;99.90
66013;DHT22;52783;50.502;8.190;2023-04-25T06:05:41;7.10;99.90
66013;DHT22;52783;50.502;8.190;2023-04-25T06:08:06;7.30;99.90
66013;DHT22;52783;50.502;8.190;2023-04-25T06:10:32;7.60;99.90
66013;DHT22;52783;50.502;8.190;2023-04-25T06:12:57;8.30;99.90
66013;DHT22;52783;50.502;8.190;2023-04-25T06:15:23;8.20;99.90
66013;DHT22;52783;50.502;8.190;2023-04-25T06:17:48;8.00;99.90
66013;DHT22;52783;50.502;8.190;2023-04-25T06:20:14;7.90;99.90
66013;DHT22;52783;50.502;8.190;2023-04-25T06:22:40;8.20;99.90
66013;DHT22;52783;50.502;8.190;2023-04-25T06:25:05;7.90;99.90
66013;DHT22;52783;50.502;8.190;2023-04-25T06:27:33;7.80;99.90
66013;DHT22;52783;50.502;8.190;2023-04-25T06:29:58;7.70;99.90
66013;DHT22;52783;50.502;8.190;2023-04-25T06:32:24;7.80;99.90
66013;DHT22;52783;50.502;8.190;2023-04-25T06:34:50;7.50;99.90
66013;DHT22;52783;50.502;8.190;2023-04-25T06:37:15;7.40;99.90
66013;DHT22;52783;50.502;8.190;2023-04-25T06:39:41;7.40;99.90
66013;DHT22;52783;50.502;8.190;2023-04-25T06:42:07;7.20;99.90
66013;DHT22;52783;50.502;8.190;2023-04-25T06:44:32;7.00;99.90
66013;DHT22;52783;50.502;8.190;2023-04-25T06:46:58;6.90;99.90
66013;DHT22;52783;50.502;8.190;2023-04-25T06:49:24;7.00;99.90
66013;DHT22;52783;50.502;8.190;2023-04-25T06:51:49;7.00;99.90
66013;DHT22;52783;50.502;8.190;2023-04-25T06:54:15;7.00;99.90
66013;DHT22;52783;50.502;8.190;2023-04-25T06:56:41;7.10;99.90
66013;DHT22;52783;50.502;8.190;2023-04-25T06:59:06;7.30;99.90
66013;DHT22;52783;50.502;8.190;2023-04-25T07:01:32;7.10;99.90
66013;DHT22;52783;50.502;8.190;2023-04-25T07:03:58;7.30;99.90
66013;DHT22;52783;50.502;8.190;2023-04-25T07:06:23;7.60;99.90
66013;DHT22;52783;50.502;8.190;2023-04-25T07:08:51;7.70;99.90
66013;DHT22;52783;50.502;8.190;2023-04-25T07:11:16;7.70;99.90
66013;DHT22;52783;50.502;8.190;2023-04-25T07:13:42;8.00;99.90
66013;DHT22;52783;50.502;8.190;2023-04-25T07:16:08;8.10;99.90
66013;DHT22;52783;50.502;8.190;2023-04-25T07:18:33;8.20;99.90
66013;DHT22;52783;50.502;8.190;2023-04-25T07:20:59;8.10;99.90
66013;DHT22;52783;50.502;8.190;2023-04-25T07:23:25;8.20;99.90
66013;DHT22;52783;50.502;8.190;2023-04-25T07:25:50;8.10;99.90
66013;DHT22;52783;50.502;8.190;2023-04-25T07:28:16;8.10;99.90
66013;DHT22;52783;50.502;8.190;2023-04-25T07:30:41;7.90;99.90
66013;DHT22;52783;50.502;8.190;2023-04-25T07:33:07;7.90;99.90
66013;DHT22;52783;50.502;8.190;2023-04-25T07:35:33;7.90;99.90
66013;DHT22;52783;50.502;8.190;2023-04-25T07:37:58;7.40;99.90
66013;DHT22;52783;50.502;8.190;2023-04-25T07:40:24;7.50;99.90
66013;DHT22;52783;50.502;8.190;2023-04-25T07:42:50;7.50;99.90
66013;DHT22;52783;50.502;8.190;2023-04-25T07:45:15;7.50;99.90
66013;DHT22;52783;50.502;8.190;2023-04-25T07:47:41;7.60;99.90
66013;DHT22;52783;50.502;8.190;2023-04-25T07:50:07;7.60;99.90
66013;DHT22;52783;50.502;8.190;2023-04-25T07:52:33;7.60;99.90
66013;DHT22;52783;50.502;8.190;2023-04-25T07:54:58;7.40;99.90
66013;DHT22;52783;50.502;8.190;2023-04-25T07:57:24;7.60;99.90
66013;DHT22;52783;50.502;8.190;2023-04-25T07:59:49;7.80;99.90
66013;DHT22;52783;50.502;8.190;2023-04-25T08:02:15;7.70;99.90
66013;DHT22;52783;50.502;8.190;2023-04-25T08:04:41;7.80;99.90
66013;DHT22;52783;50.502;8.190;2023-04-25T08:07:06;8.10;99.90
66013;DHT22;52783;50.502;8.190;2023-04-25T08:09:32;8.40;99.90
66013;DHT22;52783;50.502;8.190;2023-04-25T08:12:00;9.10;99.90
66013;DHT22;52783;50.502;8.190;2023-04-25T08:14:27;9.70;99.90
66013;DHT22;52783;50.502;8.190;2023-04-25T08:16:54;9.60;99.90
66013;DHT22;52783;50.502;8.190;2023-04-25T08:19:19;9.50;99.90
66013;DHT22;52783;50.502;8.190;2023-04-25T08:21:45;9.30;99.90
66013;DHT22;52783;50.502;8.190;2023-04-25T08:24:11;9.40;99.90
66013;DHT22;52783;50.502;8.190;2023-04-25T08:26:36;10.00;99.90
66013;DHT22;52783;50.502;8.190;2023-04-25T08:29:03;10.60;99.90
66013;DHT22;52783;50.502;8.190;2023-04-25T08:31:29;10.80;99.90
66013;DHT22;52783;50.502;8.190;2023-04-25T08:33:55;10.80;99.90
66013;DHT22;52783;50.502;8.190;2023-04-25T08:36:21;10.30;99.90
66013;DHT22;52783;50.502;8.190;2023-04-25T08:38:46;10.40;99.90
66013;DHT22;52783;50.502;8.190;2023-04-25T08:41:13;10.20;99.90
66013;DHT22;52783;50.502;8.190;2023-04-25T08:43:41;10.20;99.90
66013;DHT22;52783;50.502;8.190;2023-04-25T08:46:08;9.50;99.90
66013;DHT22;52783;50.502;8.190;2023-04-25T08:48:33;9.40;99.90
66013;DHT22;52783;50.502;8.190;2023-04-25T08:51:01;9.30;99.90
66013;DHT22;52783;50.502;8.190;2023-04-25T08:53:32;9.20;99.90
66013;DHT22;52783;50.502;8.190;2023-04-25T08:56:00;9.00;99.90
66013;DHT22;52783;50.502;8.190;2023-04-25T08:58:29;9.20;99.90
66013;DHT22;52783;50.502;8.190;2023-04-25T09:00:55;8.90;99.90
66013;DHT22;52783;50.502;8.190;2023-04-25T09:03:21;8.30;99.90
66013;DHT22;52783;50.502;8.190;2023-04-25T09:05:47;7.90;99.90
66013;DHT22;52783;50.502;8.190;2023-04-25T09:08:12;8.00;99.90
66013;DHT22;52783;50.502;8.190;2023-04-25T09:10:38;8.20;99.90
66013;DHT22;52783;50.502;8.190;2023-04-25T09:13:05;8.10;99.90
66013;DHT22;52783;50.502;8.190;2023-04-25T09:15:32;8.00;99.90
66013;DHT22;52783;50.502;8.190;2023-04-25T09:17:59;8.40;99.90
66013;DHT22;52783;50.502;8.190;2023-04-25T09:20:24;8.80;99.90
66013;DHT22;52783;50.502;8.190;2023-04-25T09:23:01;9.30;99.90
66013;DHT22;52783;50.502;8.190;2023-04-25T09:25:34;9.00;99.90
66013;DHT22;52783;50.502;8.190;2023-04-25T09:28:03;9.30;99.90
66013;DHT22;52783;50.502;8.190;2023-04-25T09:30:31;9.50;99.90
66013;DHT22;52783;50.502;8.190;2023-04-25T09:32:57;10.00;99.90
66013;DHT22;52783;50.502;8.190;2023-04-25T09:35:26;10.00;99.90
66013;DHT22;52783;50.502;8.190;2023-04-25T09:37:52;9.90;99.90
66013;DHT22;52783;50.502;8.190;2023-04-25T09:40:18;9.60;99.90
66013;DHT22;52783;50.502;8.190;2023-04-25T09:42:44;9.40;99.90
66013;DHT22;52783;50.502;8.190;2023-04-25T09:45:12;9.50;99.90
66013;DHT22;52783;50.502;8.190;2023-04-25T09:47:40;9.20;99.90
66013;DHT22;52783;50.502;8.190;2023-04-25T09:50:14;9.10;99.90
66013;DHT22;52783;50.502;8.190;2023-04-25T09:52:41;9.70;99.90
66013;DHT22;52783;50.502;8.190;2023-04-25T09:55:06;9.40;99.90
66013;DHT22;52783;50.502;8.190;2023-04-25T09:57:33;9.20;99.90
66013;DHT22;52783;50.502;8.190;2023-04-25T10:00:00;9.40;99.90
66013;DHT22;52783;50.502;8.190;2023-04-25T10:02:27;9.20;99.90
66013;DHT22;52783;50.502;8.190;2023-04-25T10:04:54;9.20;99.90
66013;DHT22;52783;50.502;8.190;2023-04-25T10:07:25;9.20;99.90
66013;DHT22;52783;50.502;8.190;2023-04-25T10:10:00;9.30;99.90
66013;DHT22;52783;50.502;8.190;2023-04-25T10:12:27;9.40;99.90
66013;DHT22;52783;50.502;8.190;2023-04-25T10:14:53;9.50;99.90
66013;DHT22;52783;50.502;8.190;2023-04-25T10:17:20;9.50;99.90
66013;DHT22;52783;50.502;8.190;2023-04-25T10:19:47;9.70;99.90
66013;DHT22;52783;50.502;8.190;2023-04-25T10:24:42;10.30;99.90
66013;DHT22;52783;50.502;8.190;2023-04-25T10:27:09;10.00;99.90
66013;DHT22;52783;50.502;8.190;2023-04-25T10:29:35;10.00;99.90
66013;DHT22;52783;50.502;8.190;2023-04-25T10:32:00;9.90;99.90
66013;DHT22;52783;50.502;8.190;2023-04-25T10:34:43;10.20;99.90
66013;DHT22;52783;50.502;8.190;2023-04-25T10:37:13;10.80;99.90
66013;DHT22;52783;50.502;8.190;2023-04-25T10:39:40;10.50;99.90
66013;DHT22;52783;50.502;8.190;2023-04-25T10:42:06;10.60;99.90
66013;DHT22;52783;50.502;8.190;2023-04-25T10:44:33;11.10;99.90
66013;DHT22;52783;50.502;8.190;2023-04-25T10:47:01;11.20;99.90
66013;DHT22;52783;50.502;8.190;2023-04-25T10:55:02;9.60;99.90
66013;DHT22;52783;50.502;8.190;2023-04-25T10:57:44;9.60;99.90
66013;DHT22;52783;50.502;8.190;2023-04-25T11:00:20;9.70;99.90
66013;DHT22;52783;50.502;8.190;2023-04-25T11:03:08;9.20;99.90
66013;DHT22;52783;50.502;8.190;2023-04-25T11:05:36;9.30;99.90
66013;DHT22;52783;50.502;8.190;2023-04-25T11:08:02;9.30;99.90
66013;DHT22;52783;50.502;8.190;2023-04-25T11:10:30;9.10;99.90
66013;DHT22;52783;50.502;8.190;2023-04-25T11:12:57;9.10;99.90
66013;DHT22;52783;50.502;8.190;2023-04-25T11:15:23;9.20;99.90
66013;DHT22;52783;50.502;8.190;2023-04-25T11:17:51;9.50;99.90
66013;DHT22;52783;50.502;8.190;2023-04-25T11:20:17;9.50;99.90
66013;DHT22;52783;50.502;8.190;2023-04-25T11:22:45;9.70;99.90
66013;DHT22;52783;50.502;8.190;2023-04-25T11:25:12;9.70;99.90
66013;DHT22;52783;50.502;8.190;2023-04-25T11:27:51;9.80;99.90
66013;DHT22;52783;50.502;8.190;2023-04-25T11:30:17;10.00;99.90
66013;DHT22;52783;50.502;8.190;2023-04-25T11:32:43;9.80;99.90
66013;DHT22;52783;50.502;8.190;2023-04-25T11:35:09;9.50;99.90
66013;DHT22;52783;50.502;8.190;2023-04-25T11:37:36;9.50;99.90
66013;DHT22;52783;50.502;8.190;2023-04-25T11:40:03;9.80;99.90
66013;DHT22;52783;50.502;8.190;2023-04-25T11:42:32;10.10;99.90
66013;DHT22;52783;50.502;8.190;2023-04-25T11:44:58;10.70;99.90
66013;DHT22;52783;50.502;8.190;2023-04-25T11:47:31;10.90;99.90
66013;DHT22;52783;50.502;8.190;2023-04-25T11:50:03;10.70;99.90
66013;DHT22;52783;50.502;8.190;2023-04-25T11:52:43;10.70;99.90
66013;DHT22;52783;50.502;8.190;2023-04-25T11:55:19;11.30;99.90
66013;DHT22;52783;50.502;8.190;2023-04-25T11:57:48;11.20;99.90
66013;DHT22;52783;50.502;8.190;2023-04-25T12:00:17;11.70;99.90
66013;DHT22;52783;50.502;8.190;2023-04-25T12:02:45;11.40;99.90
66013;DHT22;52783;50.502;8.190;2023-04-25T12:05:12;11.60;99.90
66013;DHT22;52783;50.502;8.190;2023-04-25T12:07:39;11.80;99.90
66013;DHT22;52783;50.502;8.190;2023-04-25T12:10:11;11.60;99.90
66013;DHT22;52783;50.502;8.190;2023-04-25T12:12:37;10.80;99.90
66013;DHT22;52783;50.502;8.190;2023-04-25T12:15:29;10.20;99.90
66013;DHT22;52783;50.502;8.190;2023-04-25T12:17:55;9.70;99.90
66013;DHT22;52783;50.502;8.190;2023-04-25T12:20:23;9.70;99.90
66013;DHT22;52783;50.502;8.190;2023-04-25T12:22:50;9.70;99.90
66013;DHT22;52783;50.502;8.190;2023-04-25T12:25:41;9.80;99.90
66013;DHT22;52783;50.502;8.190;2023-04-25T12:28:11;9.80;99.90
66013;DHT22;52783;50.502;8.190;2023-04-25T12:30:57;9.90;99.90
66013;DHT22;52783;50.502;8.190;2023-04-25T12:33:24;10.00;99.90
66013;DHT22;52783;50.502;8.190;2023-04-25T12:35:49;10.20;99.90
66013;DHT22;52783;50.502;8.190;2023-04-25T12:38:28;10.20;99.90
66013;DHT22;52783;50.502;8.190;2023-04-25T12:40:56;10.20;99.90
66013;DHT22;52783;50.502;8.190;2023-04-25T12:43:22;10.10;99.90
66013;DHT22;52783;50.502;8.190;2023-04-25T12:45:49;10.20;99.90
66013;DHT22;52783;50.502;8.190;2023-04-25T12:48:16;10.40;99.90
66013;DHT22;52783;50.502;8.190;2023-04-25T12:50:42;10.70;99.90
66013;DHT22;52783;50.502;8.190;2023-04-25T12:53:09;10.70;99.90
66013;DHT22;52783;50.502;8.190;2023-04-25T12:55:34;10.80;99.90
66013;DHT22;52783;50.502;8.190;2023-04-25T12:58:00;11.10;99.90
66013;DHT22;52783;50.502;8.190;2023-04-25T13:00:26;11.40;99.90
66013;DHT22;52783;50.502;8.190;2023-04-25T13:02:52;11.60;99.90
66013;DHT22;52783;50.502;8.190;2023-04-25T13:05:17;11.80;99.90
66013;DHT22;52783;50.502;8.190;2023-04-25T13:07:43;11.50;99.90
66013;DHT22;52783;50.502;8.190;2023-04-25T13:10:08;10.80;99.90
66013;DHT22;52783;50.502;8.190;2023-04-25T13:12:34;10.80;99.90
66013;DHT22;52783;50.502;8.190;2023-04-25T13:15:00;10.50;99.90
66013;DHT22;52783;50.502;8.190;2023-04-25T13:17:26;10.30;99.90
66013;DHT22;52783;50.502;8.190;2023-04-25T13:19:52;10.40;99.90
66013;DHT22;52783;50.502;8.190;2023-04-25T13:22:17;10.20;99.90
66013;DHT22;52783;50.502;8.190;2023-04-25T13:24:45;10.30;99.90
66013;DHT22;52783;50.502;8.190;2023-04-25T13:27:11;9.80;99.90
66013;DHT22;52783;50.502;8.190;2023-04-25T13:29:37;9.70;99.90
66013;DHT22;52783;50.502;8.190;2023-04-25T13:32:04;9.90;99.90
66013;DHT22;52783;50.502;8.190;2023-04-25T13:34:30;10.00;99.90
66013;DHT22;52783;50.502;8.190;2023-04-25T13:36:56;10.10;99.90
66013;DHT22;52783;50.502;8.190;2023-04-25T13:39:21;10.40;99.90
66013;DHT22;52783;50.502;8.190;2023-04-25T13:41:47;10.50;99.90
66013;DHT22;52783;50.502;8.190;2023-04-25T13:44:13;10.40;99.90
66013;DHT22;52783;50.502;8.190;2023-04-25T13:46:38;10.20;99.90
66013;DHT22;52783;50.502;8.190;2023-04-25T13:49:04;10.50;99.90
66013;DHT22;52783;50.502;8.190;2023-04-25T13:51:30;10.50;99.90
66013;DHT22;52783;50.502;8.190;2023-04-25T13:53:56;10.60;99.90
66013;DHT22;52783;50.502;8.190;2023-04-25T13:56:23;10.70;99.90
66013;DHT22;52783;50.502;8.190;2023-04-25T13:58:50;10.70;99.90
66013;DHT22;52783;50.502;8.190;2023-04-25T14:01:17;11.00;99.90
66013;DHT22;52783;50.502;8.190;2023-04-25T14:03:42;11.10;99.90
66013;DHT22;52783;50.502;8.190;2023-04-25T14:06:08;11.30;99.90
66013;DHT22;52783;50.502;8.190;2023-04-25T14:08:34;11.20;99.90
66013;DHT22;52783;50.502;8.190;2023-04-25T14:11:00;11.50;99.90
66013;DHT22;52783;50.502;8.190;2023-04-25T14:13:26;11.10;99.90
66013;DHT22;52783;50.502;8.190;2023-04-25T14:15:51;11.40;99.90
66013;DHT22;52783;50.502;8.190;2023-04-25T14:18:17;11.20;99.90
66013;DHT22;52783;50.502;8.190;2023-04-25T14:20:43;11.20;99.90
66013;DHT22;52783;50.502;8.190;2023-04-25T14:23:08;11.20;99.90
66013;DHT22;52783;50.502;8.190;2023-04-25T14:25:34;11.40;99.90
66013;DHT22;52783;50.502;8.190;2023-04-25T14:28:01;11.30;99.90
66013;DHT22;52783;50.502;8.190;2023-04-25T14:30:27;11.50;99.90
66013;DHT22;52783;50.502;8.190;2023-04-25T14:32:53;11.60;99.90
66013;DHT22;52783;50.502;8.190;2023-04-25T14:35:18;11.00;99.90
66013;DHT22;52783;50.502;8.190;2023-04-25T14:37:44;10.90;99.90
66013;DHT22;52783;50.502;8.190;2023-04-25T14:40:10;11.30;99.90
66013;DHT22;52783;50.502;8.190;2023-04-25T14:42:37;11.50;99.90
66013;DHT22;52783;50.502;8.190;2023-04-25T14:45:04;11.50;99.90
66013;DHT22;52783;50.502;8.190;2023-04-25T14:47:30;11.20;99.90
66013;DHT22;52783;50.502;8.190;2023-04-25T14:49:56;11.20;99.90
66013;DHT22;52783;50.502;8.190;2023-04-25T14:52:21;11.30;99.90
66013;DHT22;52783;50.502;8.190;2023-04-25T14:54:48;10.90;99.90
66013;DHT22;52783;50.502;8.190;2023-04-25T14:57:14;10.70;99.90
66013;DHT22;52783;50.502;8.190;2023-04-25T14:59:40;10.40;99.90
66013;DHT22;52783;50.502;8.190;2023-04-25T15:02:06;10.40;99.90
66013;DHT22;52783;50.502;8.190;2023-04-25T15:04:32;10.40;99.90
66013;DHT22;52783;50.502;8.190;2023-04-25T15:06:57;10.30;99.90
66013;DHT22;52783;50.502;8.190;2023-04-25T15:09:24;9.90;99.90
66013;DHT22;52783;50.502;8.190;2023-04-25T15:11:50;9.50;99.90
66013;DHT22;52783;50.502;8.190;2023-04-25T15:14:17;9.40;99.90
66013;DHT22;52783;50.502;8.190;2023-04-25T15:16:43;9.40;99.90
66013;DHT22;52783;50.502;8.190;2023-04-25T15:19:08;9.40;99.90
66013;DHT22;52783;50.502;8.190;2023-04-25T15:21:34;9.50;99.90
66013;DHT22;52783;50.502;8.190;2023-04-25T15:24:00;9.60;99.90
66013;DHT22;52783;50.502;8.190;2023-04-25T15:26:27;9.70;99.90
66013;DHT22;52783;50.502;8.190;2023-04-25T15:28:52;9.90;99.90
66013;DHT22;52783;50.502;8.190;2023-04-25T15:31:18;10.00;99.90
66013;DHT22;52783;50.502;8.190;2023-04-25T15:33:44;10.10;99.90
66013;DHT22;52783;50.502;8.190;2023-04-25T15:36:10;10.10;99.90
66013;DHT22;52783;50.502;8.190;2023-04-25T15:38:36;10.10;99.90
66013;DHT22;52783;50.502;8.190;2023-04-25T15:41:02;10.40;99.90
66013;DHT22;52783;50.502;8.190;2023-04-25T15:43:28;10.70;99.90
66013;DHT22;52783;50.502;8.190;2023-04-25T15:45:54;10.90;99.90
66013;DHT22;52783;50.502;8.190;2023-04-25T15:48:20;10.90;99.90
66013;DHT22;52783;50.502;8.190;2023-04-25T15:50:46;10.90;99.90